Time;durP1;ratioP1;P1;durP2;ratioP2;P2;SDS_P1;SDS_P2;PMS_P1;PMS_P2;Temp;Humidity;BMP_temperature;BMP_pressure;BME280_temperature;BME280_humidity;BME280_pressure;Samples;Min_cycle;Max_cycle;Signal;HPM_P1;HPM_P2
2022/04/22 00:00:22;;;;;;;9.38;7.93;;;;;;;19.78;37.66;99992.97;5119081;27;20088;-67
2022/04/22 00:02:48;;;;;;;11.38;8.27;;;;;;;19.82;37.65;99988.13;5124296;27;20063;-71
2022/04/22 00:05:13;;;;;;;12.63;8.90;;;;;;;19.85;37.55;99986.94;5125078;27;20111;-70
2022/04/22 00:07:39;;;;;;;12.48;8.55;;;;;;;19.87;37.54;99983.09;5132789;27;20166;-72
2022/04/22 00:10:06;;;;;;;11.95;8.65;;;;;;;19.89;37.44;99985.63;5120367;27;20027;-70
2022/04/22 00:12:32;;;;;;;11.35;8.68;;;;;;;19.89;37.27;99986.47;5132317;27;20058;-68
2022/04/22 00:14:57;;;;;;;11.50;8.70;;;;;;;19.93;37.28;99986.94;5134440;27;20657;-71
2022/04/22 00:17:23;;;;;;;10.40;8.30;;;;;;;19.97;37.20;99982.91;5124367;27;20027;-70
2022/04/22 00:19:48;;;;;;;11.60;7.97;;;;;;;20.12;37.11;99988.44;5128936;27;20031;-71
2022/04/22 00:22:14;;;;;;;8.93;8.02;;;;;;;20.26;37.01;99982.34;5123931;27;20030;-73
2022/04/22 00:24:39;;;;;;;11.05;7.30;;;;;;;20.43;36.67;99977.72;5138442;27;20517;-70
2022/04/22 00:27:05;;;;;;;11.85;7.30;;;;;;;20.56;36.55;99984.38;5125217;27;20394;-69
2022/04/22 00:29:31;;;;;;;12.00;7.57;;;;;;;20.65;36.12;99975.28;5120068;27;20055;-70
2022/04/22 00:31:56;;;;;;;9.73;7.43;;;;;;;20.74;35.96;99987.66;5132228;27;20031;-70
2022/04/22 00:34:21;;;;;;;10.70;6.28;;;;;;;20.82;35.93;99980.59;5136659;27;20077;-71
2022/04/22 00:36:47;;;;;;;9.50;6.82;;;;;;;20.85;35.84;99977.53;5130035;27;20039;-69
2022/04/22 00:39:12;;;;;;;7.13;5.97;;;;;;;20.88;35.77;99971.81;5115322;27;20039;-71
2022/04/22 00:41:38;;;;;;;7.20;5.68;;;;;;;20.93;35.47;99974.81;5115338;27;20412;-70
2022/04/22 00:44:04;;;;;;;7.45;5.35;;;;;;;20.97;35.54;99976.13;5116111;27;20502;-71
2022/04/22 00:46:29;;;;;;;8.18;5.70;;;;;;;20.99;35.42;99975.97;5116122;27;20077;-69
2022/04/22 00:48:55;;;;;;;6.97;4.95;;;;;;;21.03;35.34;99979.94;5116034;27;20046;-70
2022/04/22 00:51:22;;;;;;;7.57;5.40;;;;;;;21.07;35.20;99980.44;5116675;27;20051;-69
2022/04/22 00:53:50;;;;;;;6.15;4.43;;;;;;;21.06;35.29;99971.53;5126623;27;20035;-70
2022/04/22 00:56:16;;;;;;;5.57;4.55;;;;;;;21.11;35.21;99968.28;5114692;27;20039;-71
2022/04/22 00:58:44;;;;;;;6.35;4.70;;;;;;;21.12;34.82;99962.75;5118058;27;20043;-72
2022/04/22 01:01:13;;;;;;;7.68;4.72;;;;;;;21.15;34.96;99966.91;5116166;27;20032;-72
2022/04/22 01:03:39;;;;;;;7.90;5.85;;;;;;;21.16;34.93;99952.44;5117392;27;20023;-69
2022/04/22 01:11:39;;;;;;;7.32;5.55;;;;;;;21.19;34.79;99950.22;5114654;27;20068;-70
2022/04/22 01:14:07;;;;;;;5.72;4.88;;;;;;;21.21;34.81;99947.38;5114489;27;20019;-69
2022/04/22 01:16:51;;;;;;;6.80;5.53;;;;;;;21.24;34.78;99948.88;5121987;27;20398;-68
2022/04/22 01:19:17;;;;;;;6.53;5.28;;;;;;;21.24;34.64;99944.34;5114696;27;20020;-70
2022/04/22 01:21:42;;;;;;;7.45;5.32;;;;;;;21.26;34.47;99946.84;5114504;27;20450;-72
2022/04/22 01:24:08;;;;;;;11.65;5.20;;;;;;;21.27;34.62;99937.75;5116221;27;20028;-72
2022/04/22 01:26:34;;;;;;;5.88;4.78;;;;;;;21.28;34.67;99942.94;5127779;27;20026;-68
2022/04/22 01:29:01;;;;;;;6.95;4.40;;;;;;;21.30;34.63;99942.78;5114018;27;20115;-70
2022/04/22 01:31:26;;;;;;;6.60;4.85;;;;;;;21.29;34.42;99944.59;5116797;27;20028;-69
2022/04/22 01:33:52;;;;;;;6.78;4.85;;;;;;;21.32;34.60;99949.63;5133562;27;20034;-68
2022/04/22 01:36:17;;;;;;;8.10;4.75;;;;;;;21.33;34.42;99950.47;5133449;27;20034;-70
2022/04/22 01:38:43;;;;;;;4.32;3.92;;;;;;;21.33;34.53;99954.00;5118212;27;20027;-72
2022/04/22 01:41:09;;;;;;;7.75;5.20;;;;;;;21.33;34.42;99945.06;5118277;27;20023;-71
2022/04/22 01:43:35;;;;;;;5.60;4.88;;;;;;;21.37;34.51;99941.00;5114726;27;20118;-70
2022/04/22 01:46:01;;;;;;;7.32;4.57;;;;;;;21.37;34.43;99942.88;5113548;27;20106;-69
2022/04/22 01:48:27;;;;;;;6.72;4.47;;;;;;;21.37;34.64;99940.19;5114086;28;20028;-71
2022/04/22 01:50:53;;;;;;;6.15;5.07;;;;;;;21.39;34.43;99948.91;5117039;27;20030;-69
2022/04/22 01:53:18;;;;;;;8.45;5.03;;;;;;;21.40;34.38;99948.72;5134250;27;20051;-71
2022/04/22 01:55:44;;;;;;;6.32;5.40;;;;;;;21.41;34.44;99949.53;5135312;27;20039;-71
2022/04/22 01:58:09;;;;;;;9.68;5.10;;;;;;;21.41;34.43;99944.16;5134969;27;20370;-72
2022/04/22 02:00:35;;;;;;;7.85;5.05;;;;;;;21.43;34.52;99953.75;5134620;27;20041;-71
2022/04/22 02:03:00;;;;;;;7.25;5.60;;;;;;;21.43;34.37;99952.91;5134577;27;20035;-70
2022/04/22 02:05:26;;;;;;;6.30;5.47;;;;;;;21.42;34.38;99949.38;5134671;27;20046;-71
2022/04/22 02:07:51;;;;;;;6.05;5.45;;;;;;;21.43;34.41;99942.97;5135145;27;20058;-72
2022/04/22 02:10:17;;;;;;;6.43;5.15;;;;;;;21.44;34.18;99954.56;5134461;27;20379;-73
2022/04/22 02:12:42;;;;;;;6.03;4.97;;;;;;;21.46;34.35;99957.94;5134020;27;20527;-73
2022/04/22 02:15:08;;;;;;;9.10;5.55;;;;;;;21.46;34.35;99960.63;5134030;27;20035;-71
2022/04/22 02:17:34;;;;;;;6.25;5.32;;;;;;;21.46;34.16;99958.78;5135062;27;20057;-72
2022/04/22 02:20:01;;;;;;;8.45;5.43;;;;;;;21.47;34.18;99957.72;5134404;27;20031;-71
2022/04/22 02:22:26;;;;;;;8.15;7.03;;;;;;;21.48;34.27;99958.59;5134258;27;20042;-72
2022/04/22 02:24:52;;;;;;;7.25;5.80;;;;;;;21.50;34.28;99952.00;5134317;27;20043;-72
2022/04/22 02:30:01;;;;;;;8.73;6.18;;;;;;;21.50;34.21;99951.16;5134886;27;20447;-73
2022/04/22 02:32:27;;;;;;;6.65;5.68;;;;;;;21.50;34.26;99949.28;5133828;27;20039;-71
2022/04/22 02:34:52;;;;;;;5.90;5.30;;;;;;;21.53;34.21;99953.50;5133898;27;20089;-73
2022/04/22 02:37:18;;;;;;;8.20;6.10;;;;;;;21.54;34.18;99952.50;5133975;27;20035;-70
2022/04/22 02:39:43;;;;;;;5.82;5.22;;;;;;;21.54;34.16;99947.09;5134332;27;20058;-72
2022/04/22 02:47:37;;;;;;;7.70;5.50;;;;;;;21.55;34.17;99951.44;5134135;27;20173;-71
2022/04/22 02:50:02;;;;;;;7.03;6.18;;;;;;;21.57;34.06;99953.97;5133799;27;20517;-70
2022/04/22 02:52:28;;;;;;;7.28;6.13;;;;;;;21.56;34.13;99947.72;5133598;27;20145;-69
2022/04/22 02:54:54;;;;;;;8.00;6.38;;;;;;;21.56;34.13;99947.72;5133976;27;20075;-69
2022/04/22 02:57:20;;;;;;;8.13;7.00;;;;;;;21.59;34.14;99943.84;5133793;27;20027;-70
2022/04/22 02:59:45;;;;;;;7.80;5.88;;;;;;;21.60;34.14;99950.94;5134022;27;20031;-71
2022/04/22 03:02:11;;;;;;;6.05;5.45;;;;;;;21.61;34.17;99942.69;5133631;27;20033;-72
2022/04/22 03:04:36;;;;;;;6.03;5.43;;;;;;;21.62;34.03;99951.56;5133533;27;20062;-70
2022/04/22 03:07:03;;;;;;;7.32;5.82;;;;;;;21.63;34.19;99943.34;5132884;27;20035;-70
2022/04/22 03:09:28;;;;;;;9.32;6.85;;;;;;;21.63;34.15;99940.63;5133220;27;20091;-69
2022/04/22 03:11:54;;;;;;;9.88;5.93;;;;;;;21.64;34.08;99947.69;5133593;27;20039;-71
2022/04/22 03:14:20;;;;;;;8.20;6.25;;;;;;;21.65;33.87;99956.59;5133015;27;20056;-71
2022/04/22 03:16:45;;;;;;;8.73;6.38;;;;;;;21.66;34.15;99954.75;5133120;27;20379;-70
2022/04/22 03:19:11;;;;;;;8.93;6.82;;;;;;;21.66;34.15;99952.88;5133022;28;20084;-71
2022/04/22 03:21:37;;;;;;;6.78;5.70;;;;;;;21.69;34.12;99957.91;5133116;27;20030;-72
2022/04/22 03:24:02;;;;;;;7.55;6.78;;;;;;;21.71;34.06;99949.63;5133539;28;20113;-71
2022/04/22 03:26:28;;;;;;;8.52;6.75;;;;;;;21.72;33.95;99964.78;5132114;27;20126;-72
2022/04/22 03:28:54;;;;;;;9.82;7.15;;;;;;;21.77;34.06;99965.06;5133034;28;20042;-71
2022/04/22 03:31:19;;;;;;;9.02;6.53;;;;;;;21.77;33.97;99957.00;5133182;27;20031;-72
2022/04/22 03:33:45;;;;;;;11.18;7.15;;;;;;;21.77;33.89;99959.69;5133162;28;20502;-72
2022/04/22 03:36:12;;;;;;;6.95;5.80;;;;;;;21.77;33.93;99954.31;5133290;27;20076;-71
2022/04/22 03:38:38;;;;;;;10.50;6.15;;;;;;;21.78;33.87;99958.66;5142570;27;20410;-73
2022/04/22 03:41:03;;;;;;;9.50;7.30;;;;;;;21.78;33.87;99955.97;5132344;27;20137;-71
2022/04/22 03:43:28;;;;;;;9.65;6.75;;;;;;;21.79;33.89;99957.66;5132669;28;20114;-72
2022/04/22 03:45:54;;;;;;;11.15;6.72;;;;;;;21.78;33.78;99961.38;5133136;27;20027;-71
2022/04/22 03:48:20;;;;;;;9.50;6.32;;;;;;;21.79;33.90;99963.84;5133117;28;20381;-73
2022/04/22 03:50:46;;;;;;;9.82;6.90;;;;;;;21.79;34.05;99958.47;5133139;27;20026;-71
2022/04/22 03:53:11;;;;;;;9.77;6.82;;;;;;;21.80;33.87;99964.72;5132518;27;20061;-71
2022/04/22 03:55:38;;;;;;;10.15;6.85;;;;;;;21.79;33.88;99963.84;5133065;27;20489;-72
2022/04/22 03:58:11;;;;;;;7.80;5.93;;;;;;;21.82;33.89;99965.38;5133415;28;20397;-73
2022/04/22 04:00:42;;;;;;;8.95;6.55;;;;;;;21.83;33.86;99964.34;5133263;27;20030;-72
2022/04/22 04:03:09;;;;;;;9.13;6.35;;;;;;;21.83;33.91;99964.34;5132906;27;20031;-71
2022/04/22 04:05:36;;;;;;;7.70;5.97;;;;;;;21.83;33.88;99956.28;5132438;27;20030;-71
2022/04/22 04:08:02;;;;;;;8.77;6.30;;;;;;;21.85;33.88;99970.38;5133295;28;20034;-71
2022/04/22 04:15:58;;;;;;;8.93;6.75;;;;;;;21.86;33.93;99972.03;5133148;27;20124;-73
2022/04/22 04:18:29;;;;;;;7.32;5.82;;;;;;;21.87;33.80;99965.63;5132604;27;20595;-70
2022/04/22 04:23:39;;;;;;;7.32;5.57;;;;;;;21.89;33.90;99963.59;5133157;28;20456;-73
2022/04/22 04:26:06;;;;;;;6.18;4.65;;;;;;;21.88;33.90;99961.91;5133439;27;20130;-72
2022/04/22 04:28:33;;;;;;;6.82;5.38;;;;;;;21.91;33.72;99958.88;5118086;27;20191;-73
2022/04/22 04:30:59;;;;;;;9.52;5.85;;;;;;;21.94;33.77;99965.72;5136577;27;20059;-71
2022/04/22 04:33:25;;;;;;;5.35;4.72;;;;;;;21.97;33.73;99965.38;5136442;27;20557;-70
2022/04/22 04:35:50;;;;;;;8.38;5.60;;;;;;;22.00;33.81;99974.94;5136358;27;20039;-73
2022/04/22 04:38:17;;;;;;;7.32;4.90;;;;;;;22.00;33.79;99970.38;5136173;27;20043;-72
2022/04/22 04:40:44;;;;;;;6.70;5.20;;;;;;;22.05;33.70;99967.13;5135655;27;20441;-70
2022/04/22 04:43:09;;;;;;;8.52;5.07;;;;;;;22.07;33.75;99965.09;5135766;27;20035;-72
2022/04/22 04:45:35;;;;;;;9.15;7.13;;;;;;;22.07;33.65;99962.41;5136195;27;20074;-70
2022/04/22 04:48:02;;;;;;;6.50;5.47;;;;;;;22.09;33.58;99974.66;5135706;27;20039;-70
2022/04/22 04:50:27;;;;;;;7.95;5.80;;;;;;;22.13;33.55;99958.94;5136144;27;20035;-70
2022/04/22 04:52:53;;;;;;;9.18;6.15;;;;;;;22.17;33.43;99964.81;5135439;27;20091;-70
2022/04/22 04:55:19;;;;;;;8.75;6.88;;;;;;;22.18;33.34;99967.31;5135296;27;20031;-71
2022/04/22 04:57:44;;;;;;;9.25;7.15;;;;;;;22.17;33.28;99960.25;5135337;27;20070;-71
2022/04/22 05:00:11;;;;;;;9.65;6.88;;;;;;;22.21;33.26;99963.41;5135665;27;20109;-70
2022/04/22 05:02:38;;;;;;;7.63;6.15;;;;;;;22.22;33.41;99962.38;5135720;27;20055;-70
2022/04/22 05:05:05;;;;;;;9.23;7.07;;;;;;;22.23;33.25;99964.91;5136590;27;20122;-70
2022/04/22 05:07:32;;;;;;;8.02;5.85;;;;;;;22.27;33.24;99972.63;5135594;27;20095;-69
2022/04/22 05:09:57;;;;;;;8.48;6.75;;;;;;;22.27;33.15;99965.38;5136107;27;20035;-70
2022/04/22 05:12:23;;;;;;;10.45;6.20;;;;;;;22.28;33.17;99967.03;5135024;27;20117;-71
2022/04/22 05:14:48;;;;;;;6.70;5.90;;;;;;;22.32;33.10;99962.09;5135681;27;20087;-70
2022/04/22 05:17:14;;;;;;;10.55;5.47;;;;;;;22.34;33.09;99969.00;5152473;27;20418;-71
2022/04/22 05:19:40;;;;;;;6.35;4.63;;;;;;;22.37;33.13;99970.47;5135807;27;20162;-71
2022/04/22 05:22:05;;;;;;;5.88;4.55;;;;;;;22.39;32.89;99971.13;5135224;27;20046;-71
2022/04/22 05:24:31;;;;;;;6.57;4.97;;;;;;;22.40;32.91;99967.41;5136634;27;20482;-72
2022/04/22 05:26:57;;;;;;;5.40;3.95;;;;;;;22.43;32.90;99967.03;5134803;27;20023;-70
2022/04/22 05:34:51;;;;;;;5.28;3.97;;;;;;;22.51;32.91;99974.19;5135450;27;20054;-73
2022/04/22 05:37:17;;;;;;;5.53;4.13;;;;;;;22.54;32.88;99963.03;5134343;27;20529;-72
2022/04/22 05:39:43;;;;;;;5.50;4.05;;;;;;;22.59;32.82;99973.25;5135630;27;20498;-70
2022/04/22 05:42:09;;;;;;;6.05;4.13;;;;;;;22.62;32.77;99962.09;5134623;27;20032;-73
2022/04/22 05:44:35;;;;;;;5.25;4.03;;;;;;;22.66;32.94;99964.22;5135412;27;20043;-70
2022/04/22 05:47:00;;;;;;;6.18;4.13;;;;;;;22.70;32.84;99960.09;5134089;27;20114;-71
2022/04/22 05:49:27;;;;;;;5.45;3.83;;;;;;;22.76;32.80;99960.38;5134550;27;20038;-70
2022/04/22 05:51:53;;;;;;;5.47;4.10;;;;;;;22.80;32.79;99965.22;5134533;27;20062;-72
2022/04/22 05:54:19;;;;;;;4.88;3.95;;;;;;;22.84;32.78;99961.09;5134602;27;20150;-71
2022/04/22 05:56:44;;;;;;;9.02;4.10;;;;;;;22.91;32.80;99968.41;5134557;27;20066;-73
2022/04/22 05:59:10;;;;;;;7.05;3.70;;;;;;;22.94;32.84;99970.75;5134892;27;20046;-71
2022/04/22 06:01:35;;;;;;;6.10;3.67;;;;;;;22.99;32.44;99968.31;5134284;27;20110;-73
2022/04/22 06:04:01;;;;;;;4.93;3.58;;;;;;;22.98;32.34;99956.66;5134692;27;20023;-72
2022/04/22 06:06:26;;;;;;;5.15;3.95;;;;;;;23.01;32.43;99967.09;5134683;27;20648;-73
2022/04/22 06:11:36;;;;;;;6.93;3.70;;;;;;;23.10;32.34;99965.09;5134928;27;20529;-70
2022/04/22 06:14:01;;;;;;;6.85;3.40;;;;;;;23.13;32.45;99967.41;5134789;27;20027;-72
2022/04/22 06:16:27;;;;;;;4.25;3.25;;;;;;;23.18;32.17;99969.53;5133853;27;20046;-71
2022/04/22 06:18:53;;;;;;;8.98;3.05;;;;;;;23.25;32.17;99965.03;5134501;27;20401;-71
2022/04/22 06:21:18;;;;;;;7.47;3.92;;;;;;;23.30;32.13;99964.50;5134195;27;20096;-72
2022/04/22 06:23:44;;;;;;;4.70;3.80;;;;;;;23.35;32.20;99966.59;5134288;27;20027;-71
2022/04/22 06:26:09;;;;;;;4.47;3.10;;;;;;;23.40;32.11;99964.97;5134195;27;20117;-71
2022/04/22 06:28:35;;;;;;;5.40;3.17;;;;;;;23.47;32.03;99959.63;5115850;27;20027;-72
2022/04/22 06:31:00;;;;;;;6.97;3.53;;;;;;;23.54;31.91;99948.88;5133826;27;20029;-71
2022/04/22 06:33:26;;;;;;;4.35;3.22;;;;;;;23.59;31.90;99949.97;5134369;27;20027;-72
2022/04/22 06:35:52;;;;;;;5.10;3.38;;;;;;;23.65;31.70;99951.03;5133914;27;20023;-73
2022/04/22 06:38:18;;;;;;;3.97;2.80;;;;;;;23.71;31.92;99955.66;5134550;27;20039;-72
2022/04/22 06:46:18;;;;;;;6.35;3.17;;;;;;;23.89;31.43;99951.63;5133984;27;20075;-73
2022/04/22 06:48:44;;;;;;;6.00;3.15;;;;;;;23.93;31.49;99961.00;5133147;27;20038;-71
2022/04/22 06:51:11;;;;;;;6.95;3.50;;;;;;;23.93;31.14;99958.28;5133327;27;20474;-71
2022/04/22 06:53:37;;;;;;;3.45;3.03;;;;;;;23.94;31.27;99954.56;5133943;27;20038;-72
2022/04/22 06:56:06;;;;;;;5.20;3.60;;;;;;;23.94;31.26;99957.25;5133682;27;20405;-72
2022/04/22 06:58:37;;;;;;;4.65;3.50;;;;;;;23.95;30.67;99956.22;5133963;27;20478;-73
2022/04/22 07:01:03;;;;;;;4.88;3.35;;;;;;;23.96;31.12;99955.22;5133425;27;20035;-72
2022/04/22 07:03:29;;;;;;;6.47;3.75;;;;;;;23.98;30.72;99958.56;5132568;27;20035;-73
2022/04/22 07:05:54;;;;;;;4.65;2.90;;;;;;;24.01;31.13;99960.03;5132981;27;20430;-71
2022/04/22 07:08:20;;;;;;;4.40;2.63;;;;;;;24.03;31.25;99956.13;5133341;27;20035;-73
2022/04/22 07:10:50;;;;;;;3.63;2.67;;;;;;;24.05;30.96;99956.72;5133456;27;20027;-72
2022/04/22 07:13:17;;;;;;;4.88;2.60;;;;;;;24.06;31.09;99957.56;5133878;27;20039;-72
2022/04/22 07:15:48;;;;;;;8.05;2.72;;;;;;;24.06;30.84;99953.00;5133307;27;20035;-72
2022/04/22 07:18:14;;;;;;;4.85;3.08;;;;;;;24.06;30.98;99958.41;5133911;27;20486;-72
2022/04/22 07:20:41;;;;;;;4.82;2.30;;;;;;;24.07;30.79;99960.06;5134131;27;20033;-73
2022/04/22 07:23:06;;;;;;;8.18;2.88;;;;;;;24.10;30.53;99955.31;5133406;28;20413;-74
2022/04/22 07:25:32;;;;;;;4.72;2.22;;;;;;;24.08;30.78;99950.94;5133362;27;20031;-74
2022/04/22 07:27:59;;;;;;;7.85;2.80;;;;;;;24.10;30.78;99952.59;5133799;27;20035;-71
2022/04/22 07:30:25;;;;;;;3.75;2.70;;;;;;;24.10;30.85;99958.84;5133172;27;20062;-72
2022/04/22 07:32:51;;;;;;;10.23;3.10;;;;;;;24.13;30.61;99954.91;5133641;28;20088;-73
2022/04/22 07:35:21;;;;;;;3.70;2.38;;;;;;;24.14;30.84;99956.56;5133537;28;20104;-73
2022/04/22 07:37:50;;;;;;;5.38;2.95;;;;;;;24.13;30.77;99952.22;5133244;27;20031;-73
2022/04/22 07:40:19;;;;;;;4.65;2.90;;;;;;;24.12;30.83;99958.66;5133236;28;20482;-73
2022/04/22 07:48:20;;;;;;;2.85;2.15;;;;;;;24.15;31.07;99939.31;5133492;27;20115;-72
2022/04/22 07:50:47;;;;;;;6.25;2.75;;;;;;;24.18;30.99;99947.88;5133020;27;20193;-71
2022/04/22 07:53:22;;;;;;;4.95;2.47;;;;;;;24.18;30.97;99936.22;5132991;28;20059;-72
2022/04/22 07:55:48;;;;;;;3.53;2.38;;;;;;;24.22;30.94;99946.44;5133190;27;20095;-73
2022/04/22 07:58:15;;;;;;;3.25;1.90;;;;;;;24.22;30.53;99945.59;5133026;27;20533;-74
2022/04/22 08:00:41;;;;;;;5.78;2.75;;;;;;;24.23;30.92;99944.56;5135084;27;20026;-72
2022/04/22 08:03:10;;;;;;;6.50;2.95;;;;;;;24.22;30.37;99942.88;5136460;27;20027;-73
2022/04/22 08:05:37;;;;;;;5.15;2.75;;;;;;;24.22;30.54;99935.63;5136518;27;20031;-73
2022/04/22 08:08:04;;;;;;;5.30;2.33;;;;;;;24.24;30.61;99935.41;5137124;27;20031;-74
2022/04/22 08:10:29;;;;;;;4.60;2.25;;;;;;;24.24;30.72;99940.81;5136996;27;20080;-73
2022/04/22 08:12:55;;;;;;;5.10;2.30;;;;;;;24.25;30.59;99937.06;5137036;27;20105;-72
2022/04/22 08:15:21;;;;;;;6.57;2.22;;;;;;;24.29;30.78;99942.91;5136661;27;20549;-71
2022/04/22 08:17:47;;;;;;;28.38;4.43;;;;;;;24.30;30.78;99936.47;5136751;27;20114;-72
2022/04/22 08:20:13;;;;;;;4.28;2.85;;;;;;;24.32;30.76;99929.84;5136945;27;20159;-71
2022/04/22 08:22:39;;;;;;;7.93;2.55;;;;;;;24.31;30.42;99928.16;5136487;27;20031;-71
2022/04/22 08:25:05;;;;;;;3.17;2.35;;;;;;;24.31;30.50;99925.47;5136658;27;20042;-73
2022/04/22 08:27:31;;;;;;;2.78;1.83;;;;;;;24.33;30.39;99933.38;5136245;27;20076;-71
2022/04/22 08:29:58;;;;;;;5.18;1.85;;;;;;;24.33;30.77;99930.66;5118162;27;20039;-71
2022/04/22 08:32:24;;;;;;;4.35;2.20;;;;;;;24.34;30.69;99930.44;5136326;27;20035;-72
2022/04/22 08:34:51;;;;;;;2.58;1.80;;;;;;;24.36;30.90;99919.44;5136380;27;20046;-73
2022/04/22 08:37:18;;;;;;;4.88;2.30;;;;;;;24.36;30.40;99922.97;5135517;27;20039;-74
2022/04/22 08:39:43;;;;;;;2.90;2.15;;;;;;;24.37;30.75;99915.72;5136274;27;20126;-71
2022/04/22 08:42:12;;;;;;;2.47;2.28;;;;;;;24.40;30.45;99919.88;5136604;27;20055;-71
2022/04/22 08:44:38;;;;;;;2.85;1.60;;;;;;;24.42;30.42;99921.31;5136792;27;20084;-72
2022/04/22 08:50:16;;;;;;;3.22;1.73;;;;;;;24.47;30.75;99920.75;5072646;28;20040;-73
2022/04/22 08:52:43;;;;;;;2.25;1.60;;;;;;;24.51;30.83;99919.28;5127109;27;20055;-72
2022/04/22 08:55:10;;;;;;;3.30;2.13;;;;;;;24.52;30.59;99902.88;5136112;27;20058;-72
2022/04/22 08:57:36;;;;;;;5.28;2.70;;;;;;;24.54;30.50;99908.06;5135940;27;20042;-72
2022/04/22 09:00:07;;;;;;;4.10;2.10;;;;;;;24.56;30.36;99911.41;5135852;27;20035;-73
2022/04/22 09:02:33;;;;;;;3.45;2.13;;;;;;;24.57;30.35;99910.38;5135272;27;20038;-71
2022/04/22 09:04:58;;;;;;;8.65;2.70;;;;;;;24.62;30.50;99912.44;5134815;27;20035;-73
2022/04/22 09:07:26;;;;;;;4.05;1.85;;;;;;;24.64;30.82;99913.91;5135758;27;20122;-70
2022/04/22 09:09:51;;;;;;;2.58;1.63;;;;;;;24.67;30.44;99907.28;5135886;27;20088;-70
2022/04/22 09:12:23;;;;;;;4.63;1.90;;;;;;;24.70;30.44;99908.75;5134623;27;20039;-72
2022/04/22 09:14:51;;;;;;;2.70;1.63;;;;;;;24.72;30.55;99907.50;5135391;27;20031;-71
2022/04/22 09:17:27;;;;;;;3.28;2.00;;;;;;;24.72;30.64;99902.09;5135360;27;20042;-72
2022/04/22 09:19:54;;;;;;;2.30;1.92;;;;;;;24.78;30.22;99905.84;5135664;27;20023;-70
2022/04/22 09:22:20;;;;;;;4.07;1.75;;;;;;;24.81;30.41;99905.44;5135408;27;20062;-72
2022/04/22 09:24:56;;;;;;;3.45;2.05;;;;;;;24.83;30.36;99896.09;5135215;27;20066;-73
2022/04/22 09:27:42;;;;;;;3.15;1.60;;;;;;;24.84;30.64;99899.63;5114823;28;20066;-70
2022/04/22 09:30:09;;;;;;;2.67;1.65;;;;;;;24.88;30.50;99902.75;5114970;28;20036;-71
2022/04/22 09:32:40;;;;;;;6.13;2.33;;;;;;;24.89;30.65;99891.72;5114736;28;20118;-74
2022/04/22 09:35:16;;;;;;;3.25;1.92;;;;;;;24.90;30.61;99898.81;5133417;27;20045;-76
2022/04/22 09:43:50;;;;;;;3.50;1.70;;;;;;;24.91;30.38;99883.38;5135151;27;20033;-71
2022/04/22 09:46:29;;;;;;;30.33;4.80;;;;;;;24.90;30.86;99889.84;5115777;27;20023;-76
2022/04/22 09:48:56;;;;;;;6.25;1.90;;;;;;;24.79;31.03;99884.00;5135259;27;20095;-70
2022/04/22 09:51:24;;;;;;;14.65;1.83;;;;;;;24.71;31.21;99877.94;5124599;27;20409;-71
2022/04/22 09:54:05;;;;;;;6.63;2.40;;;;;;;24.64;31.07;99877.91;5133265;27;20114;-76
2022/04/22 09:56:33;;;;;;;6.65;3.88;;;;;;;24.49;31.04;99878.91;5134999;27;21483;-74
2022/04/22 09:59:19;;;;;;;7.22;3.05;;;;;;;24.37;30.98;99875.16;5153945;27;20548;-74
2022/04/22 10:01:45;;;;;;;6.30;3.58;;;;;;;24.22;31.20;99867.19;5140705;27;20102;-74
2022/04/22 10:04:11;;;;;;;6.35;3.05;;;;;;;24.06;31.23;99873.78;5150935;27;20478;-69
2022/04/22 10:06:38;;;;;;;7.22;2.55;;;;;;;23.95;31.25;99872.44;5130786;27;20171;-70
2022/04/22 10:09:04;;;;;;;9.30;3.05;;;;;;;23.88;31.29;99868.91;5142033;27;20098;-72
2022/04/22 10:11:30;;;;;;;6.85;3.28;;;;;;;23.79;31.44;99870.94;5132542;27;20027;-73
2022/04/22 10:13:57;;;;;;;7.53;3.28;;;;;;;23.74;31.86;99873.38;5134017;27;20054;-72
2022/04/22 10:16:23;;;;;;;12.07;3.17;;;;;;;23.76;31.73;99871.31;5131572;27;20038;-67
2022/04/22 10:18:51;;;;;;;7.80;3.08;;;;;;;23.75;31.50;99869.66;5145215;27;20034;-72
2022/04/22 10:21:19;;;;;;;6.40;3.63;;;;;;;23.71;31.32;99869.22;5131408;27;20030;-74
2022/04/22 10:23:46;;;;;;;5.93;3.05;;;;;;;23.64;31.47;99860.22;5134014;27;20035;-75
2022/04/22 10:26:12;;;;;;;4.93;2.88;;;;;;;23.54;31.46;99865.97;5114647;27;20451;-77
2022/04/22 10:28:39;;;;;;;4.38;2.97;;;;;;;23.51;31.55;99863.69;5134488;27;20034;-70
2022/04/22 10:31:06;;;;;;;5.90;2.53;;;;;;;23.54;31.50;99862.47;5133704;27;20034;-72
2022/04/22 10:34:07;;;;;;;6.50;2.65;;;;;;;23.58;31.56;99852.94;5134437;27;20031;-72
2022/04/22 10:36:33;;;;;;;;;;;;;;;23.53;31.62;99855.38;5134021;27;20042;-73
2022/04/22 10:38:59;;;;;;;5.00;2.20;;;;;;;23.60;31.61;99848.19;5133844;27;19911;-74
2022/04/22 10:41:25;;;;;;;4.82;2.47;;;;;;;23.74;31.34;99852.63;5133546;27;20114;-75
2022/04/22 10:49:38;;;;;;;4.75;2.30;;;;;;;23.70;31.19;99855.88;5133657;27;20038;-73
2022/04/22 10:52:14;;;;;;;7.55;2.97;;;;;;;23.76;31.24;99850.53;5133192;27;20051;-73
2022/04/22 10:54:52;;;;;;;3.75;2.78;;;;;;;23.71;31.03;99846.75;5133923;27;20039;-74
2022/04/22 10:57:23;;;;;;;4.85;2.50;;;;;;;23.56;31.31;99852.31;5133520;27;20114;-73
2022/04/22 11:00:07;;;;;;;3.95;2.17;;;;;;;23.50;31.55;99847.69;5133982;27;20035;-71
2022/04/22 11:02:40;;;;;;;3.97;2.17;;;;;;;23.55;31.33;99843.34;5128671;27;20439;-73
2022/04/22 11:05:20;;;;;;;3.42;2.00;;;;;;;23.67;31.29;99846.31;5133383;27;20041;-72
2022/04/22 11:07:58;;;;;;;4.20;2.25;;;;;;;23.77;31.13;99849.50;5133855;27;20039;-72
2022/04/22 11:10:48;;;;;;;9.68;2.20;;;;;;;23.86;30.76;99846.63;5133651;27;20083;-73
2022/04/22 11:13:52;;;;;;;3.53;2.10;;;;;;;23.98;30.95;99834.25;5133714;28;20121;-72
2022/04/22 11:16:25;;;;;;;3.97;2.03;;;;;;;24.10;30.49;99836.38;5133363;27;20054;-72
2022/04/22 11:19:26;;;;;;;7.05;2.55;;;;;;;24.10;30.71;99833.66;5133191;28;20035;-71
2022/04/22 11:21:55;;;;;;;4.90;2.42;;;;;;;23.96;30.65;99825.50;5030097;28;20034;-72
2022/04/22 11:24:25;;;;;;;8.25;2.72;;;;;;;23.86;30.61;99825.03;5115142;28;20027;-71
2022/04/22 11:26:53;;;;;;;7.07;2.95;;;;;;;23.74;30.72;99828.31;5132958;27;20046;-72
2022/04/22 11:29:19;;;;;;;6.00;2.70;;;;;;;23.70;30.78;99832.44;5133564;28;20061;-71
2022/04/22 11:32:05;;;;;;;5.03;2.42;;;;;;;23.73;30.65;99840.13;5133044;27;20076;-71
2022/04/22 11:34:42;;;;;;;5.93;2.50;;;;;;;23.76;30.85;99830.78;5133844;27;20111;-73
2022/04/22 11:37:18;;;;;;;4.38;2.38;;;;;;;23.84;30.80;99824.38;5136986;27;20039;-70
2022/04/22 11:39:47;;;;;;;5.32;2.97;;;;;;;23.95;30.38;99823.81;5137747;27;20050;-71
2022/04/22 11:42:15;;;;;;;7.18;2.45;;;;;;;23.98;30.31;99822.59;5137198;27;20023;-71
2022/04/22 11:44:41;;;;;;;4.28;2.42;;;;;;;24.02;30.06;99821.16;5137455;27;20102;-71
2022/04/22 11:47:08;;;;;;;4.07;2.47;;;;;;;24.01;30.38;99819.50;5137293;27;20049;-72
2022/04/22 11:49:33;;;;;;;4.15;2.15;;;;;;;24.01;30.31;99812.22;5137270;27;20023;-71
2022/04/22 11:52:00;;;;;;;5.70;2.85;;;;;;;24.01;30.43;99814.09;5136251;27;20085;-71
2022/04/22 11:54:26;;;;;;;6.32;2.70;;;;;;;23.92;30.64;99807.97;5137238;27;20051;-72
2022/04/22 11:56:53;;;;;;;4.03;2.25;;;;;;;23.83;30.65;99806.50;5136708;27;20091;-71
2022/04/22 11:59:20;;;;;;;4.05;2.90;;;;;;;23.75;30.67;99802.09;5137134;27;20031;-72
2022/04/22 12:10:04;;;;;;;8.20;2.70;;;;;;;23.44;30.89;99798.84;5137132;27;20042;-70
2022/04/22 12:12:33;;;;;;;7.82;2.40;;;;;;;23.41;30.96;99801.09;5136491;27;20034;-70
2022/04/22 12:15:04;;;;;;;3.05;2.20;;;;;;;23.38;31.09;99790.72;5136197;27;20038;-72
2022/04/22 12:17:30;;;;;;;4.13;2.50;;;;;;;23.32;31.08;99792.31;5135799;27;20100;-70
2022/04/22 12:19:56;;;;;;;6.35;2.75;;;;;;;23.31;31.09;99793.34;5136367;27;20497;-71
2022/04/22 12:22:25;;;;;;;4.03;2.40;;;;;;;23.29;30.93;99787.34;5135911;27;20031;-71
2022/04/22 12:25:08;;;;;;;6.68;2.50;;;;;;;23.25;30.98;99784.19;5136320;27;20196;-72
2022/04/22 12:27:35;;;;;;;4.85;2.40;;;;;;;23.21;31.05;99782.94;5136366;27;20034;-73
2022/04/22 12:30:06;;;;;;;6.38;2.42;;;;;;;23.20;30.86;99780.38;5136101;27;20121;-71
2022/04/22 12:32:32;;;;;;;4.15;2.15;;;;;;;23.19;31.00;99784.09;5135899;27;20069;-71
2022/04/22 12:35:14;;;;;;;7.45;2.63;;;;;;;23.16;31.17;99778.06;5136251;27;20039;-73
2022/04/22 12:37:50;;;;;;;4.30;2.10;;;;;;;23.13;31.14;99788.44;5135934;27;20378;-72
2022/04/22 12:40:17;;;;;;;3.47;2.35;;;;;;;23.11;31.31;99788.63;5136184;27;20055;-70